sensor_id;sensor_type;location;lat;lon;timestamp;P1;durP1;ratioP1;P2;durP2;ratioP2
5785;SDS011;2919;48.630;9.000;2022-09-01T00:01:55;17.33;;;9.60;;
5785;SDS011;2919;48.630;9.000;2022-09-01T00:04:22;18.47;;;9.70;;
5785;SDS011;2919;48.630;9.000;2022-09-01T00:06:51;18.27;;;9.00;;
5785;SDS011;2919;48.630;9.000;2022-09-01T00:09:19;20.17;;;9.67;;
5785;SDS011;2919;48.630;9.000;2022-09-01T00:11:48;15.50;;;9.00;;
5785;SDS011;2919;48.630;9.000;2022-09-01T00:14:20;16.93;;;10.03;;
5785;SDS011;2919;48.630;9.000;2022-09-01T00:16:48;22.60;;;12.27;;
5785;SDS011;2919;48.630;9.000;2022-09-01T00:19:13;24.87;;;12.50;;
5785;SDS011;2919;48.630;9.000;2022-09-01T00:21:41;20.30;;;10.70;;
5785;SDS011;2919;48.630;9.000;2022-09-01T00:24:08;28.23;;;14.60;;
5785;SDS011;2919;48.630;9.000;2022-09-01T00:26:35;23.17;;;12.70;;
5785;SDS011;2919;48.630;9.000;2022-09-01T00:29:00;27.27;;;14.20;;
5785;SDS011;2919;48.630;9.000;2022-09-01T00:31:27;28.13;;;12.70;;
5785;SDS011;2919;48.630;9.000;2022-09-01T00:33:53;22.53;;;12.70;;
5785;SDS011;2919;48.630;9.000;2022-09-01T00:36:19;22.70;;;12.70;;
5785;SDS011;2919;48.630;9.000;2022-09-01T00:38:45;25.00;;;12.53;;
5785;SDS011;2919;48.630;9.000;2022-09-01T00:41:12;18.30;;;11.03;;
5785;SDS011;2919;48.630;9.000;2022-09-01T00:46:05;25.47;;;12.50;;
5785;SDS011;2919;48.630;9.000;2022-09-01T00:48:32;23.47;;;12.97;;
5785;SDS011;2919;48.630;9.000;2022-09-01T00:50:58;25.40;;;15.83;;
5785;SDS011;2919;48.630;9.000;2022-09-01T00:53:25;21.20;;;12.77;;
5785;SDS011;2919;48.630;9.000;2022-09-01T00:55:51;22.73;;;12.13;;
5785;SDS011;2919;48.630;9.000;2022-09-01T00:58:17;28.80;;;13.37;;
5785;SDS011;2919;48.630;9.000;2022-09-01T01:00:42;20.30;;;12.00;;
5785;SDS011;2919;48.630;9.000;2022-09-01T01:03:13;21.30;;;12.77;;
5785;SDS011;2919;48.630;9.000;2022-09-01T01:05:40;24.23;;;12.63;;
5785;SDS011;2919;48.630;9.000;2022-09-01T01:08:21;24.57;;;11.90;;
5785;SDS011;2919;48.630;9.000;2022-09-01T01:11:11;18.77;;;10.83;;
5785;SDS011;2919;48.630;9.000;2022-09-01T01:16:19;22.60;;;12.33;;
5785;SDS011;2919;48.630;9.000;2022-09-01T01:18:46;25.23;;;14.07;;
5785;SDS011;2919;48.630;9.000;2022-09-01T01:21:14;23.87;;;12.90;;
5785;SDS011;2919;48.630;9.000;2022-09-01T01:24:18;23.83;;;12.13;;
5785;SDS011;2919;48.630;9.000;2022-09-01T01:26:49;27.63;;;12.87;;
5785;SDS011;2919;48.630;9.000;2022-09-01T01:29:15;22.30;;;11.07;;
5785;SDS011;2919;48.630;9.000;2022-09-01T01:31:41;20.00;;;11.50;;
5785;SDS011;2919;48.630;9.000;2022-09-01T01:34:07;20.83;;;10.27;;
5785;SDS011;2919;48.630;9.000;2022-09-01T01:36:34;25.17;;;11.73;;
5785;SDS011;2919;48.630;9.000;2022-09-01T01:39:07;29.90;;;11.53;;
5785;SDS011;2919;48.630;9.000;2022-09-01T01:41:35;19.90;;;9.80;;
5785;SDS011;2919;48.630;9.000;2022-09-01T01:44:05;19.53;;;10.43;;
5785;SDS011;2919;48.630;9.000;2022-09-01T01:46:32;19.73;;;10.17;;
5785;SDS011;2919;48.630;9.000;2022-09-01T01:48:59;18.77;;;10.70;;
5785;SDS011;2919;48.630;9.000;2022-09-01T01:51:26;25.87;;;11.57;;
5785;SDS011;2919;48.630;9.000;2022-09-01T01:53:55;26.60;;;10.27;;
5785;SDS011;2919;48.630;9.000;2022-09-01T01:56:21;24.23;;;11.37;;
5785;SDS011;2919;48.630;9.000;2022-09-01T01:58:52;24.17;;;11.90;;
5785;SDS011;2919;48.630;9.000;2022-09-01T02:01:19;24.17;;;13.30;;
5785;SDS011;2919;48.630;9.000;2022-09-01T02:03:50;28.13;;;11.33;;
5785;SDS011;2919;48.630;9.000;2022-09-01T02:06:18;33.73;;;13.00;;
5785;SDS011;2919;48.630;9.000;2022-09-01T02:08:45;25.53;;;13.57;;
5785;SDS011;2919;48.630;9.000;2022-09-01T02:11:11;21.00;;;11.73;;
5785;SDS011;2919;48.630;9.000;2022-09-01T02:13:41;26.93;;;12.40;;
5785;SDS011;2919;48.630;9.000;2022-09-01T02:16:08;44.67;;;14.60;;
5785;SDS011;2919;48.630;9.000;2022-09-01T02:18:38;27.93;;;14.73;;
5785;SDS011;2919;48.630;9.000;2022-09-01T02:21:07;26.30;;;12.93;;
5785;SDS011;2919;48.630;9.000;2022-09-01T02:23:38;29.80;;;13.10;;
5785;SDS011;2919;48.630;9.000;2022-09-01T02:26:05;32.07;;;14.07;;
5785;SDS011;2919;48.630;9.000;2022-09-01T02:28:35;38.10;;;11.90;;
5785;SDS011;2919;48.630;9.000;2022-09-01T02:31:06;71.47;;;11.67;;
5785;SDS011;2919;48.630;9.000;2022-09-01T02:33:35;26.40;;;12.03;;
5785;SDS011;2919;48.630;9.000;2022-09-01T02:36:07;22.90;;;12.80;;
5785;SDS011;2919;48.630;9.000;2022-09-01T02:38:37;20.23;;;12.27;;
5785;SDS011;2919;48.630;9.000;2022-09-01T02:41:05;19.77;;;11.73;;
5785;SDS011;2919;48.630;9.000;2022-09-01T02:43:31;27.50;;;14.13;;
5785;SDS011;2919;48.630;9.000;2022-09-01T02:45:58;21.43;;;13.60;;
5785;SDS011;2919;48.630;9.000;2022-09-01T02:48:26;18.97;;;12.70;;
5785;SDS011;2919;48.630;9.000;2022-09-01T02:51:00;26.60;;;13.97;;
5785;SDS011;2919;48.630;9.000;2022-09-01T02:53:27;31.10;;;13.27;;
5785;SDS011;2919;48.630;9.000;2022-09-01T02:55:53;25.40;;;13.20;;
5785;SDS011;2919;48.630;9.000;2022-09-01T02:58:22;26.03;;;12.80;;
5785;SDS011;2919;48.630;9.000;2022-09-01T03:00:53;21.90;;;11.60;;
5785;SDS011;2919;48.630;9.000;2022-09-01T03:03:20;24.90;;;12.27;;
5785;SDS011;2919;48.630;9.000;2022-09-01T03:05:47;18.40;;;12.47;;
5785;SDS011;2919;48.630;9.000;2022-09-01T03:08:19;22.50;;;13.50;;
5785;SDS011;2919;48.630;9.000;2022-09-01T03:10:46;28.17;;;12.17;;
5785;SDS011;2919;48.630;9.000;2022-09-01T03:13:16;17.47;;;12.20;;
5785;SDS011;2919;48.630;9.000;2022-09-01T03:15:44;18.97;;;11.10;;
5785;SDS011;2919;48.630;9.000;2022-09-01T03:18:11;22.90;;;12.07;;
5785;SDS011;2919;48.630;9.000;2022-09-01T03:20:39;18.67;;;11.10;;
5785;SDS011;2919;48.630;9.000;2022-09-01T03:23:08;20.43;;;11.93;;
5785;SDS011;2919;48.630;9.000;2022-09-01T03:25:37;23.53;;;11.57;;
5785;SDS011;2919;48.630;9.000;2022-09-01T03:28:03;21.00;;;11.00;;
5785;SDS011;2919;48.630;9.000;2022-09-01T03:30:30;20.27;;;11.50;;
5785;SDS011;2919;48.630;9.000;2022-09-01T03:32:58;21.07;;;11.90;;
5785;SDS011;2919;48.630;9.000;2022-09-01T03:35:26;19.50;;;10.70;;
5785;SDS011;2919;48.630;9.000;2022-09-01T03:37:53;18.00;;;10.70;;
5785;SDS011;2919;48.630;9.000;2022-09-01T03:40:23;19.33;;;11.10;;
5785;SDS011;2919;48.630;9.000;2022-09-01T03:42:51;17.93;;;10.17;;
5785;SDS011;2919;48.630;9.000;2022-09-01T03:45:18;23.60;;;10.20;;
5785;SDS011;2919;48.630;9.000;2022-09-01T03:47:44;20.20;;;11.90;;
5785;SDS011;2919;48.630;9.000;2022-09-01T03:50:12;24.83;;;10.63;;
5785;SDS011;2919;48.630;9.000;2022-09-01T03:52:50;20.83;;;11.63;;
5785;SDS011;2919;48.630;9.000;2022-09-01T03:55:17;19.33;;;10.43;;
5785;SDS011;2919;48.630;9.000;2022-09-01T03:57:50;16.43;;;10.17;;
5785;SDS011;2919;48.630;9.000;2022-09-01T04:00:17;14.40;;;9.40;;
5785;SDS011;2919;48.630;9.000;2022-09-01T04:02:51;18.23;;;9.87;;
5785;SDS011;2919;48.630;9.000;2022-09-01T04:05:20;19.90;;;9.27;;
5785;SDS011;2919;48.630;9.000;2022-09-01T04:07:49;18.43;;;10.23;;
5785;SDS011;2919;48.630;9.000;2022-09-01T04:10:16;18.93;;;9.90;;
5785;SDS011;2919;48.630;9.000;2022-09-01T04:12:43;18.13;;;10.37;;
5785;SDS011;2919;48.630;9.000;2022-09-01T04:15:09;16.10;;;11.10;;
5785;SDS011;2919;48.630;9.000;2022-09-01T04:17:36;14.70;;;8.60;;
5785;SDS011;2919;48.630;9.000;2022-09-01T04:20:21;18.50;;;10.30;;
5785;SDS011;2919;48.630;9.000;2022-09-01T04:22:47;22.00;;;11.00;;
5785;SDS011;2919;48.630;9.000;2022-09-01T04:25:17;23.67;;;11.47;;
5785;SDS011;2919;48.630;9.000;2022-09-01T04:27:51;19.90;;;11.37;;
5785;SDS011;2919;48.630;9.000;2022-09-01T04:30:19;20.50;;;12.60;;
5785;SDS011;2919;48.630;9.000;2022-09-01T04:32:49;21.93;;;11.60;;
5785;SDS011;2919;48.630;9.000;2022-09-01T04:35:20;21.40;;;12.37;;
5785;SDS011;2919;48.630;9.000;2022-09-01T04:37:52;23.93;;;11.90;;
5785;SDS011;2919;48.630;9.000;2022-09-01T04:40:18;25.93;;;13.30;;
5785;SDS011;2919;48.630;9.000;2022-09-01T04:42:47;18.73;;;10.77;;
5785;SDS011;2919;48.630;9.000;2022-09-01T04:45:13;30.20;;;11.60;;
5785;SDS011;2919;48.630;9.000;2022-09-01T04:47:39;23.50;;;12.50;;
5785;SDS011;2919;48.630;9.000;2022-09-01T04:50:06;18.97;;;11.27;;
5785;SDS011;2919;48.630;9.000;2022-09-01T04:52:38;15.37;;;8.60;;
5785;SDS011;2919;48.630;9.000;2022-09-01T04:55:06;14.77;;;8.87;;
5785;SDS011;2919;48.630;9.000;2022-09-01T04:57:41;16.57;;;9.23;;
5785;SDS011;2919;48.630;9.000;2022-09-01T05:00:11;20.27;;;10.27;;
5785;SDS011;2919;48.630;9.000;2022-09-01T05:02:47;16.63;;;9.17;;
5785;SDS011;2919;48.630;9.000;2022-09-01T05:05:15;17.13;;;9.67;;
5785;SDS011;2919;48.630;9.000;2022-09-01T05:07:42;17.83;;;10.70;;
5785;SDS011;2919;48.630;9.000;2022-09-01T05:10:07;19.17;;;9.77;;
5785;SDS011;2919;48.630;9.000;2022-09-01T05:12:33;16.27;;;9.40;;
5785;SDS011;2919;48.630;9.000;2022-09-01T05:15:00;15.90;;;9.00;;
5785;SDS011;2919;48.630;9.000;2022-09-01T05:17:30;15.33;;;8.97;;
5785;SDS011;2919;48.630;9.000;2022-09-01T05:19:57;14.40;;;9.53;;
5785;SDS011;2919;48.630;9.000;2022-09-01T05:22:23;14.30;;;7.27;;
5785;SDS011;2919;48.630;9.000;2022-09-01T05:24:49;18.73;;;10.00;;
5785;SDS011;2919;48.630;9.000;2022-09-01T05:27:15;13.57;;;9.30;;
5785;SDS011;2919;48.630;9.000;2022-09-01T05:29:43;13.70;;;8.47;;
5785;SDS011;2919;48.630;9.000;2022-09-01T05:32:10;19.97;;;9.70;;
5785;SDS011;2919;48.630;9.000;2022-09-01T05:34:36;22.40;;;10.63;;
5785;SDS011;2919;48.630;9.000;2022-09-01T05:37:04;20.83;;;10.70;;
5785;SDS011;2919;48.630;9.000;2022-09-01T05:39:32;21.67;;;11.50;;
5785;SDS011;2919;48.630;9.000;2022-09-01T05:42:00;16.70;;;9.27;;
5785;SDS011;2919;48.630;9.000;2022-09-01T05:44:28;13.30;;;9.27;;
5785;SDS011;2919;48.630;9.000;2022-09-01T05:46:57;18.07;;;10.30;;
5785;SDS011;2919;48.630;9.000;2022-09-01T05:49:23;21.83;;;11.47;;
5785;SDS011;2919;48.630;9.000;2022-09-01T05:51:50;17.70;;;10.70;;
5785;SDS011;2919;48.630;9.000;2022-09-01T05:54:23;15.20;;;9.43;;
5785;SDS011;2919;48.630;9.000;2022-09-01T05:56:51;15.87;;;9.33;;
5785;SDS011;2919;48.630;9.000;2022-09-01T05:59:22;15.80;;;9.33;;
5785;SDS011;2919;48.630;9.000;2022-09-01T06:01:49;19.23;;;11.00;;
5785;SDS011;2919;48.630;9.000;2022-09-01T06:04:14;14.27;;;9.63;;
5785;SDS011;2919;48.630;9.000;2022-09-01T06:06:42;19.23;;;10.30;;
5785;SDS011;2919;48.630;9.000;2022-09-01T06:09:11;22.13;;;10.03;;
5785;SDS011;2919;48.630;9.000;2022-09-01T06:11:38;15.00;;;9.63;;
5785;SDS011;2919;48.630;9.000;2022-09-01T06:14:07;17.03;;;9.97;;
5785;SDS011;2919;48.630;9.000;2022-09-01T06:16:35;18.77;;;11.33;;
5785;SDS011;2919;48.630;9.000;2022-09-01T06:19:01;18.13;;;10.80;;
5785;SDS011;2919;48.630;9.000;2022-09-01T06:21:28;21.53;;;11.23;;
5785;SDS011;2919;48.630;9.000;2022-09-01T06:23:56;22.20;;;12.80;;
5785;SDS011;2919;48.630;9.000;2022-09-01T06:28:54;22.37;;;12.67;;
5785;SDS011;2919;48.630;9.000;2022-09-01T06:31:25;26.50;;;14.87;;
5785;SDS011;2919;48.630;9.000;2022-09-01T06:33:58;25.23;;;12.13;;
5785;SDS011;2919;48.630;9.000;2022-09-01T06:36:26;23.77;;;14.07;;
5785;SDS011;2919;48.630;9.000;2022-09-01T06:38:53;24.70;;;13.60;;
5785;SDS011;2919;48.630;9.000;2022-09-01T06:41:20;25.40;;;14.27;;
5785;SDS011;2919;48.630;9.000;2022-09-01T06:43:50;23.90;;;14.67;;
5785;SDS011;2919;48.630;9.000;2022-09-01T06:46:17;29.43;;;12.53;;
5785;SDS011;2919;48.630;9.000;2022-09-01T06:48:44;22.80;;;13.43;;
5785;SDS011;2919;48.630;9.000;2022-09-01T06:51:12;22.40;;;12.00;;
5785;SDS011;2919;48.630;9.000;2022-09-01T06:53:40;19.70;;;12.43;;
5785;SDS011;2919;48.630;9.000;2022-09-01T06:56:07;24.10;;;12.60;;
5785;SDS011;2919;48.630;9.000;2022-09-01T06:58:37;21.33;;;12.30;;
5785;SDS011;2919;48.630;9.000;2022-09-01T07:01:08;19.73;;;11.13;;
5785;SDS011;2919;48.630;9.000;2022-09-01T07:03:43;21.30;;;11.20;;
5785;SDS011;2919;48.630;9.000;2022-09-01T07:06:11;17.00;;;9.70;;
5785;SDS011;2919;48.630;9.000;2022-09-01T07:08:39;22.17;;;11.17;;
5785;SDS011;2919;48.630;9.000;2022-09-01T07:11:06;16.77;;;10.03;;
5785;SDS011;2919;48.630;9.000;2022-09-01T07:13:34;15.40;;;8.97;;
5785;SDS011;2919;48.630;9.000;2022-09-01T07:16:00;17.10;;;9.83;;
5785;SDS011;2919;48.630;9.000;2022-09-01T07:18:30;18.70;;;9.20;;
5785;SDS011;2919;48.630;9.000;2022-09-01T07:20:56;24.53;;;9.80;;
5785;SDS011;2919;48.630;9.000;2022-09-01T07:23:23;16.30;;;9.27;;
5785;SDS011;2919;48.630;9.000;2022-09-01T07:25:50;13.10;;;7.70;;
5785;SDS011;2919;48.630;9.000;2022-09-01T07:28:19;19.07;;;9.33;;
5785;SDS011;2919;48.630;9.000;2022-09-01T07:30:49;16.63;;;6.30;;
5785;SDS011;2919;48.630;9.000;2022-09-01T07:33:18;11.70;;;6.67;;
5785;SDS011;2919;48.630;9.000;2022-09-01T07:35:48;13.07;;;6.77;;
5785;SDS011;2919;48.630;9.000;2022-09-01T07:38:17;11.93;;;6.93;;
5785;SDS011;2919;48.630;9.000;2022-09-01T07:40:44;12.67;;;7.20;;
5785;SDS011;2919;48.630;9.000;2022-09-01T07:43:17;18.53;;;7.07;;
5785;SDS011;2919;48.630;9.000;2022-09-01T07:45:47;14.00;;;7.80;;
5785;SDS011;2919;48.630;9.000;2022-09-01T07:48:15;11.90;;;6.90;;
5785;SDS011;2919;48.630;9.000;2022-09-01T07:50:45;12.23;;;6.37;;
5785;SDS011;2919;48.630;9.000;2022-09-01T07:53:13;19.00;;;6.60;;
5785;SDS011;2919;48.630;9.000;2022-09-01T07:55:47;14.63;;;7.30;;
5785;SDS011;2919;48.630;9.000;2022-09-01T07:58:15;14.83;;;7.13;;
5785;SDS011;2919;48.630;9.000;2022-09-01T08:00:42;12.97;;;7.30;;
5785;SDS011;2919;48.630;9.000;2022-09-01T08:03:09;15.70;;;6.57;;
5785;SDS011;2919;48.630;9.000;2022-09-01T08:05:35;13.23;;;7.30;;
5785;SDS011;2919;48.630;9.000;2022-09-01T08:08:01;16.00;;;7.03;;
5785;SDS011;2919;48.630;9.000;2022-09-01T08:10:27;16.13;;;7.70;;
5785;SDS011;2919;48.630;9.000;2022-09-01T08:12:53;12.77;;;6.50;;
5785;SDS011;2919;48.630;9.000;2022-09-01T08:15:18;13.70;;;7.37;;
5785;SDS011;2919;48.630;9.000;2022-09-01T08:17:44;12.57;;;6.87;;
5785;SDS011;2919;48.630;9.000;2022-09-01T08:20:10;9.53;;;5.23;;
5785;SDS011;2919;48.630;9.000;2022-09-01T08:22:36;9.93;;;5.33;;
5785;SDS011;2919;48.630;9.000;2022-09-01T08:25:06;8.67;;;5.07;;
5785;SDS011;2919;48.630;9.000;2022-09-01T08:27:34;10.80;;;5.87;;
5785;SDS011;2919;48.630;9.000;2022-09-01T08:30:03;10.03;;;4.93;;
5785;SDS011;2919;48.630;9.000;2022-09-01T08:32:31;7.27;;;4.20;;
5785;SDS011;2919;48.630;9.000;2022-09-01T08:34:57;10.17;;;5.20;;
5785;SDS011;2919;48.630;9.000;2022-09-01T08:37:23;12.20;;;5.20;;
5785;SDS011;2919;48.630;9.000;2022-09-01T08:39:49;11.43;;;4.20;;
5785;SDS011;2919;48.630;9.000;2022-09-01T08:42:23;18.87;;;6.17;;
5785;SDS011;2919;48.630;9.000;2022-09-01T08:47:45;11.57;;;4.97;;
5785;SDS011;2919;48.630;9.000;2022-09-01T08:50:12;7.20;;;4.60;;
5785;SDS011;2919;48.630;9.000;2022-09-01T08:52:43;15.03;;;4.73;;
5785;SDS011;2919;48.630;9.000;2022-09-01T08:55:18;9.30;;;5.03;;
5785;SDS011;2919;48.630;9.000;2022-09-01T08:57:51;11.13;;;5.30;;
5785;SDS011;2919;48.630;9.000;2022-09-01T09:00:22;11.07;;;4.53;;
5785;SDS011;2919;48.630;9.000;2022-09-01T09:02:52;14.00;;;5.30;;
5785;SDS011;2919;48.630;9.000;2022-09-01T09:16:45;8.90;;;5.63;;
5785;SDS011;2919;48.630;9.000;2022-09-01T09:21:53;9.50;;;4.90;;
5785;SDS011;2919;48.630;9.000;2022-09-01T09:24:28;6.67;;;3.67;;
5785;SDS011;2919;48.630;9.000;2022-09-01T09:29:57;7.77;;;4.30;;
5785;SDS011;2919;48.630;9.000;2022-09-01T09:32:24;9.20;;;4.53;;
5785;SDS011;2919;48.630;9.000;2022-09-01T09:35:20;7.33;;;4.40;;
5785;SDS011;2919;48.630;9.000;2022-09-01T09:37:48;7.30;;;4.47;;
5785;SDS011;2919;48.630;9.000;2022-09-01T09:47:58;5.53;;;3.07;;
5785;SDS011;2919;48.630;9.000;2022-09-01T09:50:30;10.70;;;4.20;;
5785;SDS011;2919;48.630;9.000;2022-09-01T09:56:02;5.73;;;3.07;;
5785;SDS011;2919;48.630;9.000;2022-09-01T09:58:38;7.10;;;3.23;;
5785;SDS011;2919;48.630;9.000;2022-09-01T10:03:49;6.87;;;4.10;;
5785;SDS011;2919;48.630;9.000;2022-09-01T10:06:32;10.10;;;2.80;;
5785;SDS011;2919;48.630;9.000;2022-09-01T10:09:06;6.87;;;3.00;;
5785;SDS011;2919;48.630;9.000;2022-09-01T10:11:40;3.80;;;2.10;;
5785;SDS011;2919;48.630;9.000;2022-09-01T10:14:24;5.00;;;2.97;;
5785;SDS011;2919;48.630;9.000;2022-09-01T10:17:11;5.70;;;3.17;;
5785;SDS011;2919;48.630;9.000;2022-09-01T10:19:58;4.33;;;2.73;;
5785;SDS011;2919;48.630;9.000;2022-09-01T10:22:32;5.57;;;3.23;;
5785;SDS011;2919;48.630;9.000;2022-09-01T10:25:00;5.87;;;2.63;;
5785;SDS011;2919;48.630;9.000;2022-09-01T10:27:31;4.43;;;2.77;;
5785;SDS011;2919;48.630;9.000;2022-09-01T10:32:26;4.07;;;2.27;;
5785;SDS011;2919;48.630;9.000;2022-09-01T10:34:55;4.27;;;2.80;;
5785;SDS011;2919;48.630;9.000;2022-09-01T10:37:22;6.23;;;2.80;;
5785;SDS011;2919;48.630;9.000;2022-09-01T10:42:36;2.57;;;1.83;;
5785;SDS011;2919;48.630;9.000;2022-09-01T10:45:02;5.33;;;2.20;;
5785;SDS011;2919;48.630;9.000;2022-09-01T10:57:57;2.33;;;1.53;;
5785;SDS011;2919;48.630;9.000;2022-09-01T11:08:21;4.40;;;2.37;;
5785;SDS011;2919;48.630;9.000;2022-09-01T11:10:50;5.37;;;2.47;;
5785;SDS011;2919;48.630;9.000;2022-09-01T11:18:54;3.53;;;1.83;;
5785;SDS011;2919;48.630;9.000;2022-09-01T11:21:39;5.23;;;2.50;;
5785;SDS011;2919;48.630;9.000;2022-09-01T11:27:05;4.87;;;1.73;;
5785;SDS011;2919;48.630;9.000;2022-09-01T11:32:23;3.73;;;1.80;;
5785;SDS011;2919;48.630;9.000;2022-09-01T11:34:55;3.93;;;2.10;;
5785;SDS011;2919;48.630;9.000;2022-09-01T11:37:22;4.23;;;2.10;;
5785;SDS011;2919;48.630;9.000;2022-09-01T11:39:53;3.50;;;1.60;;
5785;SDS011;2919;48.630;9.000;2022-09-01T11:42:23;3.87;;;1.80;;
5785;SDS011;2919;48.630;9.000;2022-09-01T11:44:56;2.30;;;1.53;;
5785;SDS011;2919;48.630;9.000;2022-09-01T11:47:42;7.97;;;1.80;;
5785;SDS011;2919;48.630;9.000;2022-09-01T11:52:51;4.23;;;1.70;;
5785;SDS011;2919;48.630;9.000;2022-09-01T11:55:27;4.60;;;1.83;;
5785;SDS011;2919;48.630;9.000;2022-09-01T11:57:57;2.00;;;1.17;;
5785;SDS011;2919;48.630;9.000;2022-09-01T12:00:34;2.70;;;1.50;;
5785;SDS011;2919;48.630;9.000;2022-09-01T12:03:05;2.63;;;1.43;;
5785;SDS011;2919;48.630;9.000;2022-09-01T12:05:51;2.87;;;1.63;;
5785;SDS011;2919;48.630;9.000;2022-09-01T12:08:23;3.10;;;1.53;;
5785;SDS011;2919;48.630;9.000;2022-09-01T12:11:01;4.07;;;1.97;;
5785;SDS011;2919;48.630;9.000;2022-09-01T12:13:42;4.10;;;1.83;;
5785;SDS011;2919;48.630;9.000;2022-09-01T12:16:20;2.83;;;1.60;;
5785;SDS011;2919;48.630;9.000;2022-09-01T12:18:50;4.20;;;2.33;;
5785;SDS011;2919;48.630;9.000;2022-09-01T12:21:30;3.47;;;1.70;;
5785;SDS011;2919;48.630;9.000;2022-09-01T12:26:43;3.10;;;1.47;;
5785;SDS011;2919;48.630;9.000;2022-09-01T12:29:10;2.30;;;1.37;;
5785;SDS011;2919;48.630;9.000;2022-09-01T12:31:40;2.17;;;1.10;;
5785;SDS011;2919;48.630;9.000;2022-09-01T12:34:24;4.50;;;1.80;;
5785;SDS011;2919;48.630;9.000;2022-09-01T12:39:43;1.93;;;1.27;;
5785;SDS011;2919;48.630;9.000;2022-09-01T12:42:21;2.27;;;1.30;;
5785;SDS011;2919;48.630;9.000;2022-09-01T12:52:43;3.47;;;1.50;;
5785;SDS011;2919;48.630;9.000;2022-09-01T12:55:18;3.00;;;1.73;;
5785;SDS011;2919;48.630;9.000;2022-09-01T12:57:49;3.00;;;1.43;;
5785;SDS011;2919;48.630;9.000;2022-09-01T13:00:18;4.23;;;1.50;;
5785;SDS011;2919;48.630;9.000;2022-09-01T13:05:37;2.43;;;1.40;;
5785;SDS011;2919;48.630;9.000;2022-09-01T13:08:09;3.07;;;1.60;;
5785;SDS011;2919;48.630;9.000;2022-09-01T13:13:07;2.53;;;1.60;;
5785;SDS011;2919;48.630;9.000;2022-09-01T13:15:34;3.10;;;1.87;;
5785;SDS011;2919;48.630;9.000;2022-09-01T13:18:02;3.60;;;2.00;;
5785;SDS011;2919;48.630;9.000;2022-09-01T13:20:27;3.50;;;2.00;;
5785;SDS011;2919;48.630;9.000;2022-09-01T13:22:53;2.20;;;1.50;;
5785;SDS011;2919;48.630;9.000;2022-09-01T13:25:20;5.33;;;2.10;;
5785;SDS011;2919;48.630;9.000;2022-09-01T13:27:47;3.03;;;1.80;;
5785;SDS011;2919;48.630;9.000;2022-09-01T13:30:14;5.23;;;1.80;;
5785;SDS011;2919;48.630;9.000;2022-09-01T13:32:42;2.90;;;1.93;;
5785;SDS011;2919;48.630;9.000;2022-09-01T13:35:09;2.80;;;1.60;;
5785;SDS011;2919;48.630;9.000;2022-09-01T13:37:40;9.50;;;2.30;;
5785;SDS011;2919;48.630;9.000;2022-09-01T13:40:06;13.00;;;1.63;;
5785;SDS011;2919;48.630;9.000;2022-09-01T13:42:39;4.87;;;1.93;;
5785;SDS011;2919;48.630;9.000;2022-09-01T13:45:16;4.70;;;2.10;;
5785;SDS011;2919;48.630;9.000;2022-09-01T13:47:47;2.53;;;1.43;;
5785;SDS011;2919;48.630;9.000;2022-09-01T13:50:13;3.07;;;1.73;;
5785;SDS011;2919;48.630;9.000;2022-09-01T13:52:43;2.93;;;1.23;;
5785;SDS011;2919;48.630;9.000;2022-09-01T13:55:15;2.33;;;1.43;;
5785;SDS011;2919;48.630;9.000;2022-09-01T13:57:42;2.67;;;1.20;;
5785;SDS011;2919;48.630;9.000;2022-09-01T14:00:09;2.47;;;1.43;;
5785;SDS011;2919;48.630;9.000;2022-09-01T14:02:38;5.60;;;2.20;;
5785;SDS011;2919;48.630;9.000;2022-09-01T14:05:06;9.87;;;2.50;;
5785;SDS011;2919;48.630;9.000;2022-09-01T14:07:32;5.47;;;1.90;;
5785;SDS011;2919;48.630;9.000;2022-09-01T14:09:57;5.83;;;1.90;;
5785;SDS011;2919;48.630;9.000;2022-09-01T14:12:24;2.53;;;1.37;;
5785;SDS011;2919;48.630;9.000;2022-09-01T14:14:49;5.60;;;2.30;;
5785;SDS011;2919;48.630;9.000;2022-09-01T14:17:15;3.80;;;2.40;;
5785;SDS011;2919;48.630;9.000;2022-09-01T14:19:41;5.10;;;1.63;;
5785;SDS011;2919;48.630;9.000;2022-09-01T14:22:07;3.17;;;1.50;;
5785;SDS011;2919;48.630;9.000;2022-09-01T14:24:33;4.60;;;1.80;;
5785;SDS011;2919;48.630;9.000;2022-09-01T14:27:00;3.30;;;1.90;;
5785;SDS011;2919;48.630;9.000;2022-09-01T14:29:26;3.50;;;1.70;;
5785;SDS011;2919;48.630;9.000;2022-09-01T14:31:52;4.03;;;2.20;;
5785;SDS011;2919;48.630;9.000;2022-09-01T14:34:19;3.00;;;1.40;;
5785;SDS011;2919;48.630;9.000;2022-09-01T14:36:45;5.13;;;2.20;;
5785;SDS011;2919;48.630;9.000;2022-09-01T14:39:11;3.97;;;1.93;;
5785;SDS011;2919;48.630;9.000;2022-09-01T14:41:37;3.03;;;1.90;;
5785;SDS011;2919;48.630;9.000;2022-09-01T14:44:02;5.60;;;1.77;;
5785;SDS011;2919;48.630;9.000;2022-09-01T14:46:28;3.97;;;1.70;;
5785;SDS011;2919;48.630;9.000;2022-09-01T14:48:57;4.83;;;2.47;;
5785;SDS011;2919;48.630;9.000;2022-09-01T14:51:24;2.60;;;1.67;;
5785;SDS011;2919;48.630;9.000;2022-09-01T14:53:52;3.00;;;1.73;;
5785;SDS011;2919;48.630;9.000;2022-09-01T14:56:19;3.27;;;1.73;;
5785;SDS011;2919;48.630;9.000;2022-09-01T14:58:47;3.00;;;1.70;;
5785;SDS011;2919;48.630;9.000;2022-09-01T15:01:14;4.33;;;2.00;;
5785;SDS011;2919;48.630;9.000;2022-09-01T15:03:41;3.77;;;2.03;;
5785;SDS011;2919;48.630;9.000;2022-09-01T15:06:10;2.80;;;1.90;;
5785;SDS011;2919;48.630;9.000;2022-09-01T15:08:37;5.33;;;2.10;;
5785;SDS011;2919;48.630;9.000;2022-09-01T15:11:10;4.47;;;2.10;;
5785;SDS011;2919;48.630;9.000;2022-09-01T15:13:39;3.50;;;1.97;;
5785;SDS011;2919;48.630;9.000;2022-09-01T15:16:11;9.73;;;2.47;;
5785;SDS011;2919;48.630;9.000;2022-09-01T15:18:38;4.00;;;1.93;;
5785;SDS011;2919;48.630;9.000;2022-09-01T15:21:04;5.07;;;2.20;;
5785;SDS011;2919;48.630;9.000;2022-09-01T15:23:30;2.20;;;1.37;;
5785;SDS011;2919;48.630;9.000;2022-09-01T15:25:56;3.50;;;1.40;;
5785;SDS011;2919;48.630;9.000;2022-09-01T15:28:22;3.23;;;1.83;;
5785;SDS011;2919;48.630;9.000;2022-09-01T15:30:48;5.67;;;1.67;;
5785;SDS011;2919;48.630;9.000;2022-09-01T15:33:15;9.37;;;1.60;;
5785;SDS011;2919;48.630;9.000;2022-09-01T15:35:41;3.60;;;1.77;;
5785;SDS011;2919;48.630;9.000;2022-09-01T15:38:08;3.40;;;1.73;;
5785;SDS011;2919;48.630;9.000;2022-09-01T15:40:37;2.53;;;1.60;;
5785;SDS011;2919;48.630;9.000;2022-09-01T15:43:04;3.57;;;1.70;;
5785;SDS011;2919;48.630;9.000;2022-09-01T15:45:30;3.60;;;1.93;;
5785;SDS011;2919;48.630;9.000;2022-09-01T15:47:56;3.70;;;1.93;;
5785;SDS011;2919;48.630;9.000;2022-09-01T15:50:22;2.93;;;1.80;;
5785;SDS011;2919;48.630;9.000;2022-09-01T15:55:21;2.30;;;1.20;;
5785;SDS011;2919;48.630;9.000;2022-09-01T15:57:49;3.40;;;1.27;;
5785;SDS011;2919;48.630;9.000;2022-09-01T16:00:17;2.37;;;1.30;;
5785;SDS011;2919;48.630;9.000;2022-09-01T16:02:43;8.80;;;1.87;;
5785;SDS011;2919;48.630;9.000;2022-09-01T16:05:09;3.07;;;1.70;;
5785;SDS011;2919;48.630;9.000;2022-09-01T16:07:36;3.73;;;2.00;;
5785;SDS011;2919;48.630;9.000;2022-09-01T16:10:02;3.70;;;1.97;;
5785;SDS011;2919;48.630;9.000;2022-09-01T16:12:30;3.43;;;1.70;;
5785;SDS011;2919;48.630;9.000;2022-09-01T16:14:59;2.53;;;1.43;;
5785;SDS011;2919;48.630;9.000;2022-09-01T16:20:21;5.40;;;2.10;;
5785;SDS011;2919;48.630;9.000;2022-09-01T16:23:14;2.57;;;1.50;;
5785;SDS011;2919;48.630;9.000;2022-09-01T16:25:51;7.07;;;1.90;;
5785;SDS011;2919;48.630;9.000;2022-09-01T16:30:47;3.70;;;1.83;;
5785;SDS011;2919;48.630;9.000;2022-09-01T16:33:15;5.80;;;1.90;;
5785;SDS011;2919;48.630;9.000;2022-09-01T16:36:06;2.40;;;1.67;;
5785;SDS011;2919;48.630;9.000;2022-09-01T16:38:49;4.17;;;1.90;;
5785;SDS011;2919;48.630;9.000;2022-09-01T16:43:48;3.43;;;1.67;;
5785;SDS011;2919;48.630;9.000;2022-09-01T16:49:12;4.37;;;2.37;;
5785;SDS011;2919;48.630;9.000;2022-09-01T17:00:29;3.10;;;1.67;;
5785;SDS011;2919;48.630;9.000;2022-09-01T17:03:16;3.10;;;1.97;;
5785;SDS011;2919;48.630;9.000;2022-09-01T17:05:59;4.20;;;1.90;;
5785;SDS011;2919;48.630;9.000;2022-09-01T17:08:43;6.07;;;2.43;;
5785;SDS011;2919;48.630;9.000;2022-09-01T17:13:46;2.93;;;1.63;;
5785;SDS011;2919;48.630;9.000;2022-09-01T17:16:17;3.93;;;2.10;;
5785;SDS011;2919;48.630;9.000;2022-09-01T17:18:58;3.73;;;1.77;;